sensor_id;sensor_type;location;lat;lon;timestamp;P1;durP1;ratioP1;P2;durP2;ratioP2
74967;SDS011;63523;51.880;12.630;2023-02-28T00:00:31;5.03;;;0.50;;
74967;SDS011;63523;51.880;12.630;2023-02-28T00:02:57;3.42;;;0.43;;
74967;SDS011;63523;51.880;12.630;2023-02-28T00:05:23;3.77;;;0.50;;
74967;SDS011;63523;51.880;12.630;2023-02-28T00:07:50;3.33;;;0.50;;
74967;SDS011;63523;51.880;12.630;2023-02-28T00:10:20;3.63;;;0.40;;
74967;SDS011;63523;51.880;12.630;2023-02-28T00:12:48;4.27;;;0.67;;
74967;SDS011;63523;51.880;12.630;2023-02-28T00:15:18;3.13;;;0.38;;
74967;SDS011;63523;51.880;12.630;2023-02-28T00:17:43;3.70;;;0.50;;
74967;SDS011;63523;51.880;12.630;2023-02-28T00:20:10;3.20;;;0.50;;
74967;SDS011;63523;51.880;12.630;2023-02-28T00:22:44;2.97;;;0.43;;
74967;SDS011;63523;51.880;12.630;2023-02-28T00:25:11;3.15;;;0.40;;
74967;SDS011;63523;51.880;12.630;2023-02-28T00:27:39;3.85;;;0.50;;
74967;SDS011;63523;51.880;12.630;2023-02-28T00:30:05;4.03;;;0.50;;
74967;SDS011;63523;51.880;12.630;2023-02-28T00:32:33;4.13;;;0.70;;
74967;SDS011;63523;51.880;12.630;2023-02-28T00:34:59;3.03;;;0.40;;
74967;SDS011;63523;51.880;12.630;2023-02-28T00:37:25;3.25;;;0.40;;
74967;SDS011;63523;51.880;12.630;2023-02-28T00:39:50;3.80;;;0.50;;
74967;SDS011;63523;51.880;12.630;2023-02-28T00:42:16;3.47;;;0.38;;
74967;SDS011;63523;51.880;12.630;2023-02-28T00:44:42;2.93;;;0.40;;
74967;SDS011;63523;51.880;12.630;2023-02-28T00:47:11;3.42;;;0.40;;
74967;SDS011;63523;51.880;12.630;2023-02-28T00:49:36;3.33;;;0.40;;
74967;SDS011;63523;51.880;12.630;2023-02-28T00:52:02;2.97;;;0.30;;
74967;SDS011;63523;51.880;12.630;2023-02-28T00:54:28;3.10;;;0.40;;
74967;SDS011;63523;51.880;12.630;2023-02-28T00:56:53;5.05;;;0.38;;
74967;SDS011;63523;51.880;12.630;2023-02-28T00:59:19;3.53;;;0.37;;
74967;SDS011;63523;51.880;12.630;2023-02-28T01:01:45;4.40;;;0.30;;
74967;SDS011;63523;51.880;12.630;2023-02-28T01:04:11;3.97;;;0.30;;
74967;SDS011;63523;51.880;12.630;2023-02-28T01:06:37;2.70;;;0.40;;
74967;SDS011;63523;51.880;12.630;2023-02-28T01:09:03;2.53;;;0.38;;
74967;SDS011;63523;51.880;12.630;2023-02-28T01:11:30;3.10;;;0.40;;
74967;SDS011;63523;51.880;12.630;2023-02-28T01:13:56;3.88;;;0.52;;
74967;SDS011;63523;51.880;12.630;2023-02-28T01:16:22;2.65;;;0.30;;
74967;SDS011;63523;51.880;12.630;2023-02-28T01:18:47;3.50;;;0.40;;
74967;SDS011;63523;51.880;12.630;2023-02-28T01:21:14;2.60;;;0.30;;
74967;SDS011;63523;51.880;12.630;2023-02-28T01:23:41;3.07;;;0.30;;
74967;SDS011;63523;51.880;12.630;2023-02-28T01:26:17;3.40;;;0.43;;
74967;SDS011;63523;51.880;12.630;2023-02-28T01:28:44;2.78;;;0.20;;
74967;SDS011;63523;51.880;12.630;2023-02-28T01:31:10;3.07;;;0.37;;
74967;SDS011;63523;51.880;12.630;2023-02-28T01:33:37;2.83;;;0.30;;
74967;SDS011;63523;51.880;12.630;2023-02-28T01:36:04;3.10;;;0.38;;
74967;SDS011;63523;51.880;12.630;2023-02-28T01:38:31;4.65;;;0.57;;
74967;SDS011;63523;51.880;12.630;2023-02-28T01:40:57;2.80;;;0.30;;
74967;SDS011;63523;51.880;12.630;2023-02-28T01:43:23;3.15;;;0.60;;
74967;SDS011;63523;51.880;12.630;2023-02-28T01:45:51;4.05;;;0.47;;
74967;SDS011;63523;51.880;12.630;2023-02-28T01:48:18;2.73;;;0.27;;
74967;SDS011;63523;51.880;12.630;2023-02-28T01:50:45;3.20;;;0.35;;
74967;SDS011;63523;51.880;12.630;2023-02-28T01:53:15;3.70;;;0.47;;
74967;SDS011;63523;51.880;12.630;2023-02-28T01:55:45;8.85;;;0.70;;
74967;SDS011;63523;51.880;12.630;2023-02-28T01:58:14;3.50;;;0.70;;
74967;SDS011;63523;51.880;12.630;2023-02-28T02:00:40;2.60;;;0.20;;
74967;SDS011;63523;51.880;12.630;2023-02-28T02:03:11;4.05;;;0.50;;
74967;SDS011;63523;51.880;12.630;2023-02-28T02:05:40;4.35;;;0.60;;
74967;SDS011;63523;51.880;12.630;2023-02-28T02:08:10;2.35;;;0.32;;
74967;SDS011;63523;51.880;12.630;2023-02-28T02:18:40;2.30;;;0.20;;
74967;SDS011;63523;51.880;12.630;2023-02-28T02:24:20;3.22;;;0.40;;
74967;SDS011;63523;51.880;12.630;2023-02-28T02:27:10;2.63;;;0.23;;
74967;SDS011;63523;51.880;12.630;2023-02-28T02:32:52;3.03;;;0.40;;
74967;SDS011;63523;51.880;12.630;2023-02-28T02:38:28;4.35;;;0.50;;
74967;SDS011;63523;51.880;12.630;2023-02-28T02:44:28;2.38;;;0.40;;
74967;SDS011;63523;51.880;12.630;2023-02-28T02:47:03;3.22;;;0.60;;
74967;SDS011;63523;51.880;12.630;2023-02-28T02:49:35;5.03;;;0.50;;
74967;SDS011;63523;51.880;12.630;2023-02-28T02:52:04;2.72;;;0.40;;
74967;SDS011;63523;51.880;12.630;2023-02-28T02:54:33;3.00;;;0.43;;
74967;SDS011;63523;51.880;12.630;2023-02-28T02:57:10;3.30;;;0.40;;
74967;SDS011;63523;51.880;12.630;2023-02-28T02:59:40;2.55;;;0.40;;
74967;SDS011;63523;51.880;12.630;2023-02-28T03:02:07;3.22;;;0.40;;
74967;SDS011;63523;51.880;12.630;2023-02-28T03:04:43;3.28;;;0.30;;
74967;SDS011;63523;51.880;12.630;2023-02-28T03:07:13;2.23;;;0.30;;
74967;SDS011;63523;51.880;12.630;2023-02-28T03:09:39;3.65;;;0.50;;
74967;SDS011;63523;51.880;12.630;2023-02-28T03:12:04;4.03;;;0.40;;
74967;SDS011;63523;51.880;12.630;2023-02-28T03:14:40;2.35;;;0.35;;
74967;SDS011;63523;51.880;12.630;2023-02-28T03:30:39;3.22;;;0.47;;
74967;SDS011;63523;51.880;12.630;2023-02-28T03:33:23;3.28;;;0.47;;
74967;SDS011;63523;51.880;12.630;2023-02-28T03:36:02;3.23;;;0.47;;
74967;SDS011;63523;51.880;12.630;2023-02-28T03:41:05;3.22;;;0.60;;
74967;SDS011;63523;51.880;12.630;2023-02-28T03:43:39;3.70;;;0.80;;
74967;SDS011;63523;51.880;12.630;2023-02-28T03:46:09;3.33;;;0.40;;
74967;SDS011;63523;51.880;12.630;2023-02-28T03:48:40;5.60;;;0.50;;
74967;SDS011;63523;51.880;12.630;2023-02-28T03:51:09;2.67;;;0.32;;
74967;SDS011;63523;51.880;12.630;2023-02-28T03:53:39;3.75;;;0.47;;
74967;SDS011;63523;51.880;12.630;2023-02-28T03:56:16;2.72;;;0.40;;
74967;SDS011;63523;51.880;12.630;2023-02-28T04:01:19;4.03;;;0.33;;
74967;SDS011;63523;51.880;12.630;2023-02-28T04:03:50;3.10;;;0.40;;
74967;SDS011;63523;51.880;12.630;2023-02-28T04:06:16;4.65;;;0.80;;
74967;SDS011;63523;51.880;12.630;2023-02-28T04:08:44;2.88;;;0.40;;
74967;SDS011;63523;51.880;12.630;2023-02-28T04:11:21;4.70;;;0.40;;
74967;SDS011;63523;51.880;12.630;2023-02-28T04:14:07;4.47;;;0.80;;
74967;SDS011;63523;51.880;12.630;2023-02-28T04:16:38;4.80;;;0.98;;
74967;SDS011;63523;51.880;12.630;2023-02-28T04:19:06;4.13;;;0.50;;
74967;SDS011;63523;51.880;12.630;2023-02-28T04:21:40;4.40;;;0.50;;
74967;SDS011;63523;51.880;12.630;2023-02-28T04:24:12;4.47;;;0.60;;
74967;SDS011;63523;51.880;12.630;2023-02-28T04:26:42;4.60;;;0.82;;
74967;SDS011;63523;51.880;12.630;2023-02-28T04:29:10;3.95;;;0.90;;
74967;SDS011;63523;51.880;12.630;2023-02-28T04:31:37;3.85;;;0.60;;
74967;SDS011;63523;51.880;12.630;2023-02-28T04:34:03;4.93;;;1.00;;
74967;SDS011;63523;51.880;12.630;2023-02-28T04:36:29;3.97;;;0.70;;
74967;SDS011;63523;51.880;12.630;2023-02-28T04:38:54;3.63;;;0.60;;
74967;SDS011;63523;51.880;12.630;2023-02-28T04:41:20;4.27;;;0.90;;
74967;SDS011;63523;51.880;12.630;2023-02-28T04:43:46;3.90;;;0.80;;
74967;SDS011;63523;51.880;12.630;2023-02-28T04:46:12;3.73;;;0.90;;
74967;SDS011;63523;51.880;12.630;2023-02-28T04:48:38;4.03;;;0.88;;
74967;SDS011;63523;51.880;12.630;2023-02-28T04:51:08;5.25;;;1.17;;
74967;SDS011;63523;51.880;12.630;2023-02-28T04:53:36;4.15;;;0.90;;
74967;SDS011;63523;51.880;12.630;2023-02-28T04:56:04;5.75;;;0.98;;
74967;SDS011;63523;51.880;12.630;2023-02-28T04:58:31;4.55;;;0.95;;
74967;SDS011;63523;51.880;12.630;2023-02-28T05:01:03;4.03;;;1.07;;
74967;SDS011;63523;51.880;12.630;2023-02-28T05:03:38;3.95;;;0.80;;
74967;SDS011;63523;51.880;12.630;2023-02-28T05:06:07;4.22;;;0.85;;
74967;SDS011;63523;51.880;12.630;2023-02-28T05:08:33;4.68;;;1.00;;
74967;SDS011;63523;51.880;12.630;2023-02-28T05:10:59;3.97;;;0.70;;
74967;SDS011;63523;51.880;12.630;2023-02-28T05:13:26;4.32;;;0.70;;
74967;SDS011;63523;51.880;12.630;2023-02-28T05:15:52;4.68;;;0.90;;
74967;SDS011;63523;51.880;12.630;2023-02-28T05:18:17;4.13;;;0.80;;
74967;SDS011;63523;51.880;12.630;2023-02-28T05:20:43;3.50;;;0.70;;
74967;SDS011;63523;51.880;12.630;2023-02-28T05:23:10;5.03;;;0.90;;
74967;SDS011;63523;51.880;12.630;2023-02-28T05:25:37;5.85;;;1.40;;
74967;SDS011;63523;51.880;12.630;2023-02-28T05:28:03;6.25;;;1.20;;
74967;SDS011;63523;51.880;12.630;2023-02-28T05:30:29;5.32;;;0.88;;
74967;SDS011;63523;51.880;12.630;2023-02-28T05:32:56;5.00;;;0.98;;
74967;SDS011;63523;51.880;12.630;2023-02-28T05:35:22;5.00;;;0.90;;
74967;SDS011;63523;51.880;12.630;2023-02-28T05:37:48;4.97;;;0.93;;
74967;SDS011;63523;51.880;12.630;2023-02-28T05:40:17;6.85;;;1.42;;
74967;SDS011;63523;51.880;12.630;2023-02-28T05:42:45;6.70;;;0.93;;
74967;SDS011;63523;51.880;12.630;2023-02-28T05:45:11;4.18;;;0.80;;
74967;SDS011;63523;51.880;12.630;2023-02-28T05:47:37;5.55;;;1.00;;
74967;SDS011;63523;51.880;12.630;2023-02-28T05:50:02;4.23;;;1.20;;
74967;SDS011;63523;51.880;12.630;2023-02-28T05:52:29;7.53;;;1.08;;
74967;SDS011;63523;51.880;12.630;2023-02-28T05:54:55;5.33;;;1.10;;
74967;SDS011;63523;51.880;12.630;2023-02-28T05:57:21;5.35;;;1.10;;
74967;SDS011;63523;51.880;12.630;2023-02-28T05:59:47;5.72;;;1.00;;
74967;SDS011;63523;51.880;12.630;2023-02-28T06:02:13;5.90;;;1.10;;
74967;SDS011;63523;51.880;12.630;2023-02-28T06:04:39;6.97;;;1.83;;
74967;SDS011;63523;51.880;12.630;2023-02-28T06:07:06;5.85;;;1.30;;
74967;SDS011;63523;51.880;12.630;2023-02-28T06:09:32;7.03;;;1.40;;
74967;SDS011;63523;51.880;12.630;2023-02-28T06:11:58;5.68;;;1.20;;
74967;SDS011;63523;51.880;12.630;2023-02-28T06:14:24;7.40;;;1.50;;
74967;SDS011;63523;51.880;12.630;2023-02-28T06:16:50;5.68;;;1.30;;
74967;SDS011;63523;51.880;12.630;2023-02-28T06:19:16;4.13;;;1.20;;
74967;SDS011;63523;51.880;12.630;2023-02-28T06:21:42;7.75;;;1.35;;
74967;SDS011;63523;51.880;12.630;2023-02-28T06:24:07;4.97;;;1.20;;
74967;SDS011;63523;51.880;12.630;2023-02-28T06:26:33;6.40;;;1.37;;
74967;SDS011;63523;51.880;12.630;2023-02-28T06:28:59;6.18;;;1.00;;
74967;SDS011;63523;51.880;12.630;2023-02-28T06:31:26;6.55;;;1.50;;
74967;SDS011;63523;51.880;12.630;2023-02-28T06:33:53;6.53;;;1.27;;
74967;SDS011;63523;51.880;12.630;2023-02-28T06:36:19;6.57;;;1.40;;
74967;SDS011;63523;51.880;12.630;2023-02-28T06:38:44;5.63;;;1.00;;
74967;SDS011;63523;51.880;12.630;2023-02-28T06:41:10;5.35;;;1.20;;
74967;SDS011;63523;51.880;12.630;2023-02-28T06:43:37;6.50;;;1.27;;
74967;SDS011;63523;51.880;12.630;2023-02-28T06:46:07;9.40;;;1.15;;
74967;SDS011;63523;51.880;12.630;2023-02-28T06:48:34;6.15;;;1.40;;
74967;SDS011;63523;51.880;12.630;2023-02-28T06:53:30;5.20;;;1.20;;
74967;SDS011;63523;51.880;12.630;2023-02-28T06:55:56;7.07;;;1.38;;
74967;SDS011;63523;51.880;12.630;2023-02-28T06:58:22;7.17;;;1.70;;
74967;SDS011;63523;51.880;12.630;2023-02-28T07:00:49;6.63;;;1.55;;
74967;SDS011;63523;51.880;12.630;2023-02-28T07:03:16;4.70;;;1.10;;
74967;SDS011;63523;51.880;12.630;2023-02-28T07:05:43;10.48;;;1.50;;
74967;SDS011;63523;51.880;12.630;2023-02-28T07:08:09;6.85;;;1.58;;
74967;SDS011;63523;51.880;12.630;2023-02-28T07:10:38;4.63;;;1.47;;
74967;SDS011;63523;51.880;12.630;2023-02-28T07:13:05;5.30;;;1.52;;
74967;SDS011;63523;51.880;12.630;2023-02-28T07:15:31;5.85;;;1.40;;
74967;SDS011;63523;51.880;12.630;2023-02-28T07:17:56;10.20;;;1.73;;
74967;SDS011;63523;51.880;12.630;2023-02-28T07:20:22;6.20;;;1.40;;
74967;SDS011;63523;51.880;12.630;2023-02-28T07:22:48;7.47;;;2.00;;
74967;SDS011;63523;51.880;12.630;2023-02-28T07:25:21;7.40;;;1.77;;
74967;SDS011;63523;51.880;12.630;2023-02-28T07:27:52;7.07;;;1.90;;
74967;SDS011;63523;51.880;12.630;2023-02-28T07:30:18;5.80;;;1.45;;
74967;SDS011;63523;51.880;12.630;2023-02-28T07:32:44;6.87;;;1.80;;
74967;SDS011;63523;51.880;12.630;2023-02-28T07:35:10;7.60;;;2.00;;
74967;SDS011;63523;51.880;12.630;2023-02-28T07:37:36;11.98;;;2.00;;
74967;SDS011;63523;51.880;12.630;2023-02-28T07:40:05;5.67;;;1.70;;
74967;SDS011;63523;51.880;12.630;2023-02-28T07:42:39;6.15;;;1.63;;
74967;SDS011;63523;51.880;12.630;2023-02-28T07:45:06;12.88;;;2.42;;
74967;SDS011;63523;51.880;12.630;2023-02-28T07:47:33;5.47;;;1.52;;
74967;SDS011;63523;51.880;12.630;2023-02-28T07:49:59;6.57;;;2.10;;
74967;SDS011;63523;51.880;12.630;2023-02-28T07:52:24;10.73;;;2.40;;
74967;SDS011;63523;51.880;12.630;2023-02-28T07:54:50;7.87;;;2.23;;
74967;SDS011;63523;51.880;12.630;2023-02-28T07:57:19;6.80;;;2.00;;
74967;SDS011;63523;51.880;12.630;2023-02-28T07:59:44;6.27;;;1.97;;
74967;SDS011;63523;51.880;12.630;2023-02-28T08:02:13;8.13;;;2.50;;
74967;SDS011;63523;51.880;12.630;2023-02-28T08:04:40;9.23;;;2.20;;
74967;SDS011;63523;51.880;12.630;2023-02-28T08:07:06;20.13;;;3.90;;
74967;SDS011;63523;51.880;12.630;2023-02-28T08:09:32;9.10;;;2.33;;
74967;SDS011;63523;51.880;12.630;2023-02-28T08:11:57;5.20;;;1.80;;
74967;SDS011;63523;51.880;12.630;2023-02-28T08:14:23;7.17;;;2.17;;
74967;SDS011;63523;51.880;12.630;2023-02-28T08:16:49;17.45;;;2.60;;
74967;SDS011;63523;51.880;12.630;2023-02-28T08:19:14;7.77;;;1.97;;
74967;SDS011;63523;51.880;12.630;2023-02-28T08:21:39;26.40;;;3.07;;
74967;SDS011;63523;51.880;12.630;2023-02-28T08:24:05;8.80;;;1.87;;
74967;SDS011;63523;51.880;12.630;2023-02-28T08:26:31;6.68;;;1.60;;
74967;SDS011;63523;51.880;12.630;2023-02-28T08:28:57;8.65;;;2.00;;
74967;SDS011;63523;51.880;12.630;2023-02-28T08:31:22;6.37;;;1.50;;
74967;SDS011;63523;51.880;12.630;2023-02-28T08:33:48;6.40;;;1.70;;
74967;SDS011;63523;51.880;12.630;2023-02-28T08:36:16;6.10;;;1.67;;
74967;SDS011;63523;51.880;12.630;2023-02-28T08:38:41;5.32;;;1.70;;
74967;SDS011;63523;51.880;12.630;2023-02-28T08:41:09;6.40;;;1.77;;
74967;SDS011;63523;51.880;12.630;2023-02-28T08:43:36;6.47;;;1.92;;
74967;SDS011;63523;51.880;12.630;2023-02-28T08:46:03;6.75;;;1.80;;
74967;SDS011;63523;51.880;12.630;2023-02-28T08:48:30;5.80;;;1.90;;
74967;SDS011;63523;51.880;12.630;2023-02-28T08:50:58;7.07;;;1.83;;
74967;SDS011;63523;51.880;12.630;2023-02-28T08:53:26;7.17;;;1.73;;
74967;SDS011;63523;51.880;12.630;2023-02-28T08:56:25;6.88;;;1.73;;
74967;SDS011;63523;51.880;12.630;2023-02-28T08:58:45;7.80;;;1.98;;
74967;SDS011;63523;51.880;12.630;2023-02-28T09:01:18;7.57;;;1.77;;
74967;SDS011;63523;51.880;12.630;2023-02-28T09:03:46;5.53;;;1.60;;
74967;SDS011;63523;51.880;12.630;2023-02-28T09:06:12;7.88;;;1.80;;
74967;SDS011;63523;51.880;12.630;2023-02-28T09:08:40;4.95;;;1.40;;
74967;SDS011;63523;51.880;12.630;2023-02-28T09:11:06;8.32;;;1.60;;
74967;SDS011;63523;51.880;12.630;2023-02-28T09:13:32;4.38;;;1.17;;
74967;SDS011;63523;51.880;12.630;2023-02-28T09:15:59;5.97;;;1.50;;
74967;SDS011;63523;51.880;12.630;2023-02-28T09:18:25;4.80;;;1.70;;
74967;SDS011;63523;51.880;12.630;2023-02-28T09:20:51;5.65;;;1.50;;
74967;SDS011;63523;51.880;12.630;2023-02-28T09:23:17;4.30;;;1.13;;
74967;SDS011;63523;51.880;12.630;2023-02-28T09:25:47;6.17;;;1.80;;
74967;SDS011;63523;51.880;12.630;2023-02-28T09:28:14;4.22;;;1.27;;
74967;SDS011;63523;51.880;12.630;2023-02-28T09:30:41;5.32;;;1.20;;
74967;SDS011;63523;51.880;12.630;2023-02-28T09:33:07;5.25;;;1.60;;
74967;SDS011;63523;51.880;12.630;2023-02-28T09:35:32;7.00;;;1.60;;
74967;SDS011;63523;51.880;12.630;2023-02-28T09:37:58;7.85;;;1.55;;
74967;SDS011;63523;51.880;12.630;2023-02-28T09:40:24;4.80;;;1.70;;
74967;SDS011;63523;51.880;12.630;2023-02-28T09:42:51;5.40;;;1.63;;
74967;SDS011;63523;51.880;12.630;2023-02-28T09:45:22;5.73;;;1.40;;
74967;SDS011;63523;51.880;12.630;2023-02-28T09:47:52;7.97;;;1.90;;
74967;SDS011;63523;51.880;12.630;2023-02-28T09:50:34;5.47;;;1.65;;
74967;SDS011;63523;51.880;12.630;2023-02-28T09:53:29;4.80;;;1.50;;
74967;SDS011;63523;51.880;12.630;2023-02-28T09:55:59;6.93;;;2.20;;
74967;SDS011;63523;51.880;12.630;2023-02-28T09:58:45;6.77;;;1.70;;
74967;SDS011;63523;51.880;12.630;2023-02-28T10:07:02;16.52;;;2.58;;
74967;SDS011;63523;51.880;12.630;2023-02-28T10:09:52;5.95;;;1.67;;
74967;SDS011;63523;51.880;12.630;2023-02-28T10:12:22;6.83;;;2.00;;
74967;SDS011;63523;51.880;12.630;2023-02-28T10:14:49;6.00;;;1.30;;
74967;SDS011;63523;51.880;12.630;2023-02-28T10:17:19;5.25;;;1.48;;
74967;SDS011;63523;51.880;12.630;2023-02-28T10:22:19;5.03;;;1.47;;
74967;SDS011;63523;51.880;12.630;2023-02-28T10:24:49;6.13;;;1.52;;
74967;SDS011;63523;51.880;12.630;2023-02-28T10:27:18;7.80;;;2.00;;
74967;SDS011;63523;51.880;12.630;2023-02-28T10:29:49;6.70;;;1.50;;
74967;SDS011;63523;51.880;12.630;2023-02-28T10:32:18;5.00;;;1.80;;
74967;SDS011;63523;51.880;12.630;2023-02-28T10:34:52;5.80;;;1.60;;
74967;SDS011;63523;51.880;12.630;2023-02-28T10:37:22;4.97;;;1.63;;
74967;SDS011;63523;51.880;12.630;2023-02-28T10:39:48;6.10;;;1.60;;
74967;SDS011;63523;51.880;12.630;2023-02-28T10:42:21;6.47;;;1.50;;
74967;SDS011;63523;51.880;12.630;2023-02-28T10:45:12;6.40;;;1.77;;
74967;SDS011;63523;51.880;12.630;2023-02-28T10:47:58;5.72;;;1.83;;
74967;SDS011;63523;51.880;12.630;2023-02-28T10:58:53;6.10;;;1.90;;
74967;SDS011;63523;51.880;12.630;2023-02-28T11:01:47;6.57;;;2.92;;
74967;SDS011;63523;51.880;12.630;2023-02-28T11:06:58;7.82;;;2.08;;
74967;SDS011;63523;51.880;12.630;2023-02-28T11:09:29;5.50;;;2.13;;
74967;SDS011;63523;51.880;12.630;2023-02-28T11:11:57;6.32;;;2.00;;
74967;SDS011;63523;51.880;12.630;2023-02-28T11:14:35;6.38;;;1.98;;
74967;SDS011;63523;51.880;12.630;2023-02-28T11:17:13;6.03;;;1.60;;
74967;SDS011;63523;51.880;12.630;2023-02-28T11:19:45;5.50;;;1.70;;
74967;SDS011;63523;51.880;12.630;2023-02-28T11:22:15;5.05;;;1.70;;
74967;SDS011;63523;51.880;12.630;2023-02-28T11:24:47;9.07;;;1.83;;
74967;SDS011;63523;51.880;12.630;2023-02-28T11:29:55;6.13;;;2.20;;
74967;SDS011;63523;51.880;12.630;2023-02-28T11:32:21;6.03;;;1.70;;
74967;SDS011;63523;51.880;12.630;2023-02-28T11:37:37;7.50;;;2.00;;
74967;SDS011;63523;51.880;12.630;2023-02-28T11:40:13;5.40;;;2.20;;
74967;SDS011;63523;51.880;12.630;2023-02-28T11:51:00;7.40;;;2.25;;
74967;SDS011;63523;51.880;12.630;2023-02-28T11:56:27;5.82;;;2.00;;
74967;SDS011;63523;51.880;12.630;2023-02-28T12:01:27;6.17;;;1.80;;
74967;SDS011;63523;51.880;12.630;2023-02-28T12:07:06;5.63;;;1.73;;
74967;SDS011;63523;51.880;12.630;2023-02-28T12:23:44;7.32;;;2.40;;
74967;SDS011;63523;51.880;12.630;2023-02-28T12:29:12;6.90;;;2.00;;
74967;SDS011;63523;51.880;12.630;2023-02-28T12:32:11;6.27;;;2.20;;
74967;SDS011;63523;51.880;12.630;2023-02-28T12:34:52;6.68;;;1.95;;
74967;SDS011;63523;51.880;12.630;2023-02-28T12:37:23;7.15;;;2.38;;
74967;SDS011;63523;51.880;12.630;2023-02-28T12:39:59;6.35;;;2.30;;
74967;SDS011;63523;51.880;12.630;2023-02-28T12:42:36;5.57;;;1.98;;
74967;SDS011;63523;51.880;12.630;2023-02-28T12:47:44;8.77;;;2.47;;
74967;SDS011;63523;51.880;12.630;2023-02-28T12:50:11;6.43;;;2.50;;
74967;SDS011;63523;51.880;12.630;2023-02-28T12:52:49;5.70;;;2.25;;
74967;SDS011;63523;51.880;12.630;2023-02-28T12:58:14;7.67;;;2.10;;
74967;SDS011;63523;51.880;12.630;2023-02-28T13:11:24;5.33;;;1.93;;
74967;SDS011;63523;51.880;12.630;2023-02-28T13:13:56;7.07;;;2.17;;
74967;SDS011;63523;51.880;12.630;2023-02-28T13:16:23;6.78;;;2.20;;
74967;SDS011;63523;51.880;12.630;2023-02-28T13:18:48;6.60;;;2.30;;
74967;SDS011;63523;51.880;12.630;2023-02-28T13:21:27;6.45;;;2.28;;
74967;SDS011;63523;51.880;12.630;2023-02-28T13:28:58;6.30;;;2.30;;
74967;SDS011;63523;51.880;12.630;2023-02-28T13:31:26;6.32;;;2.10;;
74967;SDS011;63523;51.880;12.630;2023-02-28T13:36:28;5.60;;;2.00;;
74967;SDS011;63523;51.880;12.630;2023-02-28T13:38:59;7.07;;;1.77;;
74967;SDS011;63523;51.880;12.630;2023-02-28T13:46:28;6.18;;;2.22;;
74967;SDS011;63523;51.880;12.630;2023-02-28T13:48:54;6.07;;;2.10;;
74967;SDS011;63523;51.880;12.630;2023-02-28T13:51:36;6.00;;;1.97;;
74967;SDS011;63523;51.880;12.630;2023-02-28T13:57:21;8.60;;;2.55;;
74967;SDS011;63523;51.880;12.630;2023-02-28T14:03:34;5.65;;;1.73;;
74967;SDS011;63523;51.880;12.630;2023-02-28T14:05:42;7.15;;;2.15;;
74967;SDS011;63523;51.880;12.630;2023-02-28T14:08:15;7.75;;;2.13;;
74967;SDS011;63523;51.880;12.630;2023-02-28T14:10:49;7.37;;;2.60;;
74967;SDS011;63523;51.880;12.630;2023-02-28T14:13:43;8.40;;;3.42;;
74967;SDS011;63523;51.880;12.630;2023-02-28T14:16:17;7.53;;;2.33;;
74967;SDS011;63523;51.880;12.630;2023-02-28T14:18:51;6.50;;;1.98;;
74967;SDS011;63523;51.880;12.630;2023-02-28T14:21:34;6.22;;;2.60;;
74967;SDS011;63523;51.880;12.630;2023-02-28T14:29:21;6.32;;;2.47;;
74967;SDS011;63523;51.880;12.630;2023-02-28T14:32:13;8.30;;;2.58;;
74967;SDS011;63523;51.880;12.630;2023-02-28T14:38:24;9.47;;;2.50;;
74967;SDS011;63523;51.880;12.630;2023-02-28T14:40:53;6.85;;;2.45;;
74967;SDS011;63523;51.880;12.630;2023-02-28T14:43:23;7.50;;;2.42;;
74967;SDS011;63523;51.880;12.630;2023-02-28T14:45:51;7.38;;;2.30;;
74967;SDS011;63523;51.880;12.630;2023-02-28T14:48:22;6.90;;;2.35;;
74967;SDS011;63523;51.880;12.630;2023-02-28T14:50:51;9.40;;;2.40;;
74967;SDS011;63523;51.880;12.630;2023-02-28T14:53:22;6.50;;;2.58;;
74967;SDS011;63523;51.880;12.630;2023-02-28T14:55:50;7.70;;;2.85;;
74967;SDS011;63523;51.880;12.630;2023-02-28T15:00:57;5.65;;;2.10;;
74967;SDS011;63523;51.880;12.630;2023-02-28T15:06:02;6.63;;;2.20;;
74967;SDS011;63523;51.880;12.630;2023-02-28T15:08:37;5.72;;;1.90;;
74967;SDS011;63523;51.880;12.630;2023-02-28T15:11:24;6.43;;;2.53;;
74967;SDS011;63523;51.880;12.630;2023-02-28T15:13:49;8.00;;;2.40;;
74967;SDS011;63523;51.880;12.630;2023-02-28T15:16:22;5.97;;;2.13;;
74967;SDS011;63523;51.880;12.630;2023-02-28T15:18:52;8.23;;;2.20;;
74967;SDS011;63523;51.880;12.630;2023-02-28T15:21:21;7.80;;;2.15;;
74967;SDS011;63523;51.880;12.630;2023-02-28T15:23:54;7.97;;;2.53;;
74967;SDS011;63523;51.880;12.630;2023-02-28T15:26:30;7.65;;;2.45;;
74967;SDS011;63523;51.880;12.630;2023-02-28T15:29:04;7.65;;;2.17;;
74967;SDS011;63523;51.880;12.630;2023-02-28T15:31:32;5.75;;;1.92;;
74967;SDS011;63523;51.880;12.630;2023-02-28T15:34:04;6.72;;;2.30;;
74967;SDS011;63523;51.880;12.630;2023-02-28T15:36:34;5.87;;;2.10;;
74967;SDS011;63523;51.880;12.630;2023-02-28T15:39:02;5.93;;;1.80;;
74967;SDS011;63523;51.880;12.630;2023-02-28T15:41:43;6.60;;;2.10;;
74967;SDS011;63523;51.880;12.630;2023-02-28T15:46:58;7.70;;;2.20;;
74967;SDS011;63523;51.880;12.630;2023-02-28T15:49:26;5.95;;;2.08;;
74967;SDS011;63523;51.880;12.630;2023-02-28T15:51:53;7.18;;;2.40;;
74967;SDS011;63523;51.880;12.630;2023-02-28T15:54:24;9.45;;;2.90;;
74967;SDS011;63523;51.880;12.630;2023-02-28T15:56:55;6.30;;;2.20;;
74967;SDS011;63523;51.880;12.630;2023-02-28T15:59:26;8.40;;;2.20;;
74967;SDS011;63523;51.880;12.630;2023-02-28T16:04:36;6.82;;;1.95;;
74967;SDS011;63523;51.880;12.630;2023-02-28T16:07:03;6.32;;;2.10;;
74967;SDS011;63523;51.880;12.630;2023-02-28T16:09:30;8.68;;;2.30;;
74967;SDS011;63523;51.880;12.630;2023-02-28T16:11:59;6.50;;;2.30;;
74967;SDS011;63523;51.880;12.630;2023-02-28T16:14:30;7.13;;;1.90;;
74967;SDS011;63523;51.880;12.630;2023-02-28T16:16:57;11.18;;;2.80;;
74967;SDS011;63523;51.880;12.630;2023-02-28T16:19:38;8.85;;;2.67;;
74967;SDS011;63523;51.880;12.630;2023-02-28T16:22:04;12.83;;;2.83;;
74967;SDS011;63523;51.880;12.630;2023-02-28T16:24:29;11.00;;;3.63;;
74967;SDS011;63523;51.880;12.630;2023-02-28T16:26:55;13.37;;;3.97;;
74967;SDS011;63523;51.880;12.630;2023-02-28T16:32:06;7.95;;;2.25;;
74967;SDS011;63523;51.880;12.630;2023-02-28T16:34:32;8.43;;;2.53;;
74967;SDS011;63523;51.880;12.630;2023-02-28T16:36:58;7.10;;;2.07;;
74967;SDS011;63523;51.880;12.630;2023-02-28T16:39:23;13.53;;;4.90;;
74967;SDS011;63523;51.880;12.630;2023-02-28T16:41:49;14.57;;;5.80;;
74967;SDS011;63523;51.880;12.630;2023-02-28T16:44:26;15.93;;;5.70;;
74967;SDS011;63523;51.880;12.630;2023-02-28T16:46:54;7.72;;;2.90;;
74967;SDS011;63523;51.880;12.630;2023-02-28T16:49:19;8.23;;;2.70;;
74967;SDS011;63523;51.880;12.630;2023-02-28T16:51:45;8.48;;;2.70;;
74967;SDS011;63523;51.880;12.630;2023-02-28T16:54:11;7.97;;;2.67;;
74967;SDS011;63523;51.880;12.630;2023-02-28T16:56:36;10.87;;;3.17;;
74967;SDS011;63523;51.880;12.630;2023-02-28T16:59:07;8.00;;;2.83;;
74967;SDS011;63523;51.880;12.630;2023-02-28T17:01:34;8.73;;;2.55;;
74967;SDS011;63523;51.880;12.630;2023-02-28T17:03:59;6.70;;;2.10;;
74967;SDS011;63523;51.880;12.630;2023-02-28T17:06:26;8.73;;;2.05;;
74967;SDS011;63523;51.880;12.630;2023-02-28T17:08:53;6.13;;;1.90;;
74967;SDS011;63523;51.880;12.630;2023-02-28T17:11:20;7.50;;;1.98;;
74967;SDS011;63523;51.880;12.630;2023-02-28T17:13:46;9.35;;;2.03;;
74967;SDS011;63523;51.880;12.630;2023-02-28T17:16:28;7.45;;;1.90;;
74967;SDS011;63523;51.880;12.630;2023-02-28T17:19:00;7.27;;;1.63;;
74967;SDS011;63523;51.880;12.630;2023-02-28T17:21:28;7.05;;;1.70;;
74967;SDS011;63523;51.880;12.630;2023-02-28T17:23:55;25.30;;;12.63;;